UAL4643 KLAX-KSAN
Flight info
| Callsign | UAL4643 |
|---|---|
| Flight time | 0h 30m |
| Altitude | 13000 |
| Route | LAXX1 MZB |
| Aircraft | A320/M-SDE3FGHIRWY/LB1 |
Departure
| Time | 2026-05-04 00:58 |
|---|---|
| Airport | Los Angeles International Airport (KLAX) |
Arrival
| Time | 2026-05-04 01:28 |
|---|---|
| Airport | San Diego International Airport (KSAN) |
| Time | Latitude | Longitude | Altitude | Speed | Heading |
|---|---|---|---|---|---|
| 2026-05-04 00:23 | 33.94712 | -118.40479 | 94 ft | 0 kts | 132° |
| 2026-05-04 00:23 | 33.94710 | -118.40477 | 93 ft | 2 kts | 132° |
| 2026-05-04 00:27 | 33.94716 | -118.40484 | 92 ft | 0 kts | 132° |
| 2026-05-04 00:45 | 33.94721 | -118.40491 | 94 ft | 4 kts | 131° |
| 2026-05-04 00:45 | 33.94738 | -118.40515 | 93 ft | 4 kts | 125° |
| 2026-05-04 00:46 | 33.94751 | -118.40541 | 92 ft | 4 kts | 108° |
| 2026-05-04 00:46 | 33.94753 | -118.40566 | 93 ft | 4 kts | 46° |
| 2026-05-04 00:46 | 33.94749 | -118.40571 | 93 ft | 0 kts | 25° |
| 2026-05-04 00:51 | 33.94755 | -118.40567 | 93 ft | 2 kts | 23° |
| 2026-05-04 00:51 | 33.94765 | -118.40565 | 94 ft | 3 kts | 4° |
| 2026-05-04 00:52 | 33.94801 | -118.40591 | 93 ft | 8 kts | 331° |
| 2026-05-04 00:52 | 33.94851 | -118.40602 | 94 ft | 6 kts | 3° |
| 2026-05-04 00:52 | 33.94872 | -118.40563 | 94 ft | 7 kts | 87° |
| 2026-05-04 00:52 | 33.94873 | -118.40495 | 94 ft | 9 kts | 85° |
| 2026-05-04 00:53 | 33.94883 | -118.40407 | 94 ft | 12 kts | 82° |
| 2026-05-04 00:53 | 33.94893 | -118.40304 | 94 ft | 12 kts | 83° |
| 2026-05-04 00:53 | 33.94904 | -118.40208 | 94 ft | 11 kts | 82° |
| 2026-05-04 00:53 | 33.94913 | -118.40108 | 94 ft | 12 kts | 83° |
| 2026-05-04 00:54 | 33.94922 | -118.40023 | 95 ft | 11 kts | 83° |
| 2026-05-04 00:54 | 33.94928 | -118.39969 | 93 ft | 5 kts | 82° |
| 2026-05-04 00:54 | 33.94931 | -118.39953 | 93 ft | 1 kts | 73° |
| 2026-05-04 00:56 | 33.94933 | -118.39947 | 94 ft | 3 kts | 67° |
| 2026-05-04 00:56 | 33.94961 | -118.39917 | 94 ft | 6 kts | 27° |
| 2026-05-04 00:56 | 33.95012 | -118.39916 | 94 ft | 2 kts | 346° |
| 2026-05-04 00:56 | 33.95040 | -118.39942 | 93 ft | 7 kts | 299° |
| 2026-05-04 00:57 | 33.95040 | -118.39984 | 95 ft | 3 kts | 260° |
| 2026-05-04 00:57 | 33.95017 | -118.40181 | 100 ft | 55 kts | 263° |
| 2026-05-04 00:57 | 33.94946 | -118.40883 | 99 ft | 112 kts | 263° |
| 2026-05-04 00:57 | 33.94831 | -118.42012 | 111 ft | 155 kts | 263° |
| 2026-05-04 00:58 | 33.94712 | -118.43296 | 698 ft | 154 kts | 262° |
| 2026-05-04 00:58 | 33.94564 | -118.44605 | 1261 ft | 164 kts | 260° |
| 2026-05-04 00:58 | 33.94360 | -118.46052 | 1603 ft | 187 kts | 259° |
| 2026-05-04 00:58 | 33.94124 | -118.47687 | 1922 ft | 211 kts | 259° |
| 2026-05-04 00:59 | 33.93845 | -118.49527 | 2373 ft | 235 kts | 259° |
| 2026-05-04 00:59 | 33.93541 | -118.51523 | 3087 ft | 246 kts | 259° |
| 2026-05-04 00:59 | 33.93225 | -118.53571 | 3934 ft | 253 kts | 259° |
| 2026-05-04 00:59 | 33.92900 | -118.55657 | 4792 ft | 256 kts | 259° |
| 2026-05-04 01:00 | 33.92331 | -118.57700 | 5650 ft | 260 kts | 238° |
| 2026-05-04 01:00 | 33.91026 | -118.59228 | 6523 ft | 269 kts | 211° |
| 2026-05-04 01:00 | 33.89240 | -118.59941 | 7362 ft | 275 kts | 194° |
| 2026-05-04 01:00 | 33.87333 | -118.60336 | 7818 ft | 277 kts | 191° |
| 2026-05-04 01:01 | 33.85442 | -118.60690 | 7977 ft | 275 kts | 191° |
| 2026-05-04 01:01 | 33.83533 | -118.60932 | 8018 ft | 277 kts | 179° |
| 2026-05-04 01:01 | 33.81684 | -118.60273 | 8024 ft | 283 kts | 152° |
| 2026-05-04 01:01 | 33.80110 | -118.58829 | 8026 ft | 287 kts | 142° |
| 2026-05-04 01:02 | 33.78606 | -118.57242 | 8185 ft | 290 kts | 141° |
| 2026-05-04 01:02 | 33.77102 | -118.55625 | 9105 ft | 290 kts | 141° |
| 2026-05-04 01:02 | 33.75599 | -118.53998 | 9997 ft | 291 kts | 141° |
| 2026-05-04 01:02 | 33.74061 | -118.52320 | 10412 ft | 311 kts | 141° |
| 2026-05-04 01:03 | 33.72392 | -118.50503 | 10612 ft | 334 kts | 141° |
| 2026-05-04 01:03 | 33.70605 | -118.48568 | 10781 ft | 357 kts | 141° |
| 2026-05-04 01:03 | 33.68724 | -118.46542 | 10990 ft | 367 kts | 141° |
| 2026-05-04 01:03 | 33.66846 | -118.44519 | 11025 ft | 368 kts | 141° |
| 2026-05-04 01:04 | 33.64989 | -118.42404 | 11029 ft | 370 kts | 134° |
| 2026-05-04 01:04 | 33.63483 | -118.39875 | 11027 ft | 375 kts | 127° |
| 2026-05-04 01:04 | 33.62037 | -118.37265 | 11025 ft | 375 kts | 127° |
| 2026-05-04 01:04 | 33.60603 | -118.34660 | 11030 ft | 374 kts | 127° |
| 2026-05-04 01:05 | 33.59172 | -118.32051 | 11031 ft | 374 kts | 127° |
| 2026-05-04 01:05 | 33.57737 | -118.29440 | 11026 ft | 374 kts | 127° |
| 2026-05-04 01:05 | 33.56309 | -118.26848 | 11023 ft | 373 kts | 127° |
| 2026-05-04 01:05 | 33.54874 | -118.24249 | 11029 ft | 375 kts | 127° |
| 2026-05-04 01:06 | 33.53427 | -118.21637 | 11147 ft | 380 kts | 127° |
| 2026-05-04 01:06 | 33.51963 | -118.18999 | 11893 ft | 380 kts | 127° |
| 2026-05-04 01:06 | 33.50489 | -118.16346 | 12586 ft | 383 kts | 127° |
| 2026-05-04 01:06 | 33.49010 | -118.13680 | 12913 ft | 385 kts | 127° |
| 2026-05-04 01:07 | 33.47515 | -118.10986 | 12980 ft | 396 kts | 127° |
| 2026-05-04 01:07 | 33.45949 | -118.08176 | 12989 ft | 411 kts | 127° |
| 2026-05-04 01:07 | 33.44369 | -118.05344 | 12984 ft | 415 kts | 127° |
| 2026-05-04 01:07 | 33.42769 | -118.02477 | 12988 ft | 416 kts | 127° |
| 2026-05-04 01:08 | 33.41161 | -117.99600 | 12988 ft | 416 kts | 127° |
| 2026-05-04 01:08 | 33.39556 | -117.96721 | 12973 ft | 416 kts | 127° |
| 2026-05-04 01:08 | 33.37946 | -117.93832 | 12992 ft | 418 kts | 127° |
| 2026-05-04 01:08 | 33.36330 | -117.90933 | 12991 ft | 418 kts | 127° |
| 2026-05-04 01:09 | 33.34715 | -117.88037 | 12991 ft | 418 kts | 127° |
| 2026-05-04 01:09 | 33.33103 | -117.85156 | 12994 ft | 418 kts | 127° |
| 2026-05-04 01:09 | 33.31485 | -117.82265 | 12991 ft | 418 kts | 127° |
| 2026-05-04 01:09 | 33.29863 | -117.79367 | 12995 ft | 418 kts | 127° |
| 2026-05-04 01:10 | 33.28243 | -117.76482 | 12996 ft | 418 kts | 127° |
| 2026-05-04 01:10 | 33.28046 | -117.76131 | 12997 ft | 418 kts | 127° |
| 2026-05-04 01:11 | 33.27792 | -117.75680 | 12997 ft | 418 kts | 127° |
| 2026-05-04 01:11 | 33.26168 | -117.72792 | 12998 ft | 419 kts | 127° |
| 2026-05-04 01:11 | 33.24541 | -117.69898 | 12998 ft | 419 kts | 127° |
| 2026-05-04 01:12 | 33.22919 | -117.67012 | 12993 ft | 419 kts | 127° |
| 2026-05-04 01:12 | 33.21299 | -117.64129 | 12993 ft | 419 kts | 127° |
| 2026-05-04 01:12 | 33.19674 | -117.61239 | 12989 ft | 420 kts | 127° |
| 2026-05-04 01:12 | 33.18044 | -117.58346 | 12991 ft | 420 kts | 127° |
| 2026-05-04 01:13 | 33.16409 | -117.55449 | 12988 ft | 420 kts | 127° |
| 2026-05-04 01:13 | 33.14775 | -117.52556 | 12997 ft | 420 kts | 127° |
| 2026-05-04 01:13 | 33.13142 | -117.49663 | 12993 ft | 420 kts | 127° |
| 2026-05-04 01:13 | 33.11512 | -117.46777 | 12993 ft | 420 kts | 128° |
| 2026-05-04 01:14 | 33.09878 | -117.43883 | 13002 ft | 421 kts | 128° |
| 2026-05-04 01:14 | 33.08240 | -117.40993 | 12994 ft | 422 kts | 128° |
| 2026-05-04 01:14 | 33.06592 | -117.38100 | 12997 ft | 421 kts | 129° |
| 2026-05-04 01:14 | 33.04719 | -117.35456 | 12992 ft | 415 kts | 140° |
| 2026-05-04 01:15 | 33.02496 | -117.33303 | 12989 ft | 409 kts | 150° |
| 2026-05-04 01:15 | 33.00022 | -117.31704 | 12998 ft | 404 kts | 161° |
| 2026-05-04 01:15 | 32.97411 | -117.30568 | 12996 ft | 389 kts | 165° |
| 2026-05-04 01:15 | 32.94935 | -117.29533 | 13004 ft | 366 kts | 165° |
| 2026-05-04 01:16 | 32.92610 | -117.28552 | 12683 ft | 342 kts | 165° |
| 2026-05-04 01:16 | 32.90493 | -117.27654 | 12562 ft | 315 kts | 165° |
| 2026-05-04 01:16 | 32.88471 | -117.26797 | 12300 ft | 296 kts | 165° |
| 2026-05-04 01:16 | 32.86556 | -117.25995 | 11764 ft | 289 kts | 165° |
| 2026-05-04 01:17 | 32.84698 | -117.25174 | 11171 ft | 288 kts | 158° |
| 2026-05-04 01:17 | 32.83121 | -117.23611 | 10780 ft | 299 kts | 130° |
| 2026-05-04 01:17 | 32.82216 | -117.21399 | 10470 ft | 305 kts | 113° |
| 2026-05-04 01:17 | 32.81571 | -117.18984 | 10137 ft | 304 kts | 111° |
| 2026-05-04 01:18 | 32.80978 | -117.16642 | 9934 ft | 287 kts | 111° |
| 2026-05-04 01:18 | 32.80447 | -117.14441 | 9818 ft | 269 kts | 111° |
| 2026-05-04 01:18 | 32.79961 | -117.12346 | 9583 ft | 256 kts | 110° |
| 2026-05-04 01:18 | 32.79496 | -117.10327 | 9203 ft | 251 kts | 111° |
| 2026-05-04 01:19 | 32.79038 | -117.08333 | 8808 ft | 249 kts | 110° |
| 2026-05-04 01:19 | 32.78584 | -117.06362 | 8414 ft | 246 kts | 110° |
| 2026-05-04 01:19 | 32.78132 | -117.04413 | 8007 ft | 243 kts | 110° |
| 2026-05-04 01:19 | 32.77681 | -117.02485 | 7589 ft | 240 kts | 110° |
| 2026-05-04 01:20 | 32.77235 | -117.00583 | 7177 ft | 238 kts | 110° |
| 2026-05-04 01:20 | 32.76787 | -116.98697 | 6763 ft | 236 kts | 110° |
| 2026-05-04 01:20 | 32.76334 | -116.96830 | 6372 ft | 234 kts | 110° |
| 2026-05-04 01:20 | 32.75879 | -116.94988 | 5944 ft | 231 kts | 110° |
| 2026-05-04 01:21 | 32.75395 | -116.93205 | 5494 ft | 227 kts | 119° |
| 2026-05-04 01:21 | 32.74432 | -116.91815 | 5129 ft | 213 kts | 146° |
| 2026-05-04 01:21 | 32.73238 | -116.90789 | 4837 ft | 208 kts | 149° |
| 2026-05-04 01:21 | 32.72037 | -116.89873 | 4610 ft | 204 kts | 151° |
| 2026-05-04 01:22 | 32.70841 | -116.89020 | 4308 ft | 199 kts | 162° |
| 2026-05-04 01:22 | 32.69513 | -116.88767 | 4067 ft | 194 kts | 191° |
| 2026-05-04 01:22 | 32.68265 | -116.89325 | 4029 ft | 192 kts | 220° |
| 2026-05-04 01:22 | 32.67418 | -116.90538 | 4033 ft | 190 kts | 246° |
| 2026-05-04 01:23 | 32.67056 | -116.92023 | 4032 ft | 190 kts | 265° |
| 2026-05-04 01:23 | 32.67164 | -116.93572 | 4029 ft | 190 kts | 285° |
| 2026-05-04 01:23 | 32.67536 | -116.95083 | 4027 ft | 190 kts | 285° |
| 2026-05-04 01:23 | 32.67905 | -116.96590 | 4029 ft | 191 kts | 285° |
| 2026-05-04 01:24 | 32.68274 | -116.98098 | 4030 ft | 190 kts | 285° |
| 2026-05-04 01:24 | 32.68644 | -116.99610 | 4013 ft | 193 kts | 284° |
| 2026-05-04 01:24 | 32.69018 | -117.01142 | 3720 ft | 192 kts | 285° |
| 2026-05-04 01:24 | 32.69378 | -117.02615 | 3340 ft | 180 kts | 285° |
| 2026-05-04 01:25 | 32.69715 | -117.03995 | 2899 ft | 167 kts | 285° |
| 2026-05-04 01:25 | 32.70023 | -117.05255 | 2495 ft | 152 kts | 285° |
| 2026-05-04 01:25 | 32.70303 | -117.06403 | 2279 ft | 139 kts | 284° |
| 2026-05-04 01:25 | 32.70567 | -117.07487 | 2087 ft | 135 kts | 284° |
| 2026-05-04 01:26 | 32.70825 | -117.08549 | 1903 ft | 132 kts | 284° |
| 2026-05-04 01:26 | 32.71080 | -117.09599 | 1726 ft | 133 kts | 284° |
| 2026-05-04 01:26 | 32.71337 | -117.10652 | 1538 ft | 134 kts | 285° |
| 2026-05-04 01:26 | 32.71597 | -117.11723 | 1360 ft | 136 kts | 285° |
| 2026-05-04 01:27 | 32.71852 | -117.12775 | 1171 ft | 132 kts | 283° |
| 2026-05-04 01:27 | 32.72105 | -117.13819 | 945 ft | 132 kts | 283° |
| 2026-05-04 01:27 | 32.72364 | -117.14866 | 668 ft | 131 kts | 284° |
| 2026-05-04 01:27 | 32.72613 | -117.15885 | 489 ft | 129 kts | 282° |
| 2026-05-04 01:28 | 32.72853 | -117.16916 | 300 ft | 130 kts | 283° |
| 2026-05-04 01:28 | 32.73105 | -117.17947 | 99 ft | 130 kts | 284° |
| 2026-05-04 01:28 | 32.73340 | -117.18924 | 24 ft | 112 kts | 286° |
| 2026-05-04 01:28 | 32.73491 | -117.19524 | 25 ft | 39 kts | 285° |
| 2026-05-04 01:29 | 32.73511 | -117.19609 | 25 ft | 11 kts | 286° |
| 2026-05-04 01:29 | 32.73534 | -117.19711 | 27 ft | 14 kts | 279° |
| 2026-05-04 01:29 | 32.73511 | -117.19828 | 26 ft | 13 kts | 249° |
| 2026-05-04 01:29 | 32.73495 | -117.19883 | 24 ft | 0 kts | 251° |
| 2026-05-04 01:31 | 32.73491 | -117.19898 | 24 ft | 7 kts | 251° |
| 2026-05-04 01:31 | 32.73467 | -117.19948 | 25 ft | 9 kts | 217° |
| 2026-05-04 01:32 | 32.73457 | -117.19954 | 25 ft | 11 kts | 205° |
| 2026-05-04 01:32 | 32.73407 | -117.19968 | 22 ft | 4 kts | 189° |
| 2026-05-04 01:32 | 32.73376 | -117.19971 | 22 ft | 6 kts | 176° |
| 2026-05-04 01:33 | 32.73348 | -117.19934 | 21 ft | 1 kts | 109° |
| 2026-05-04 01:33 | 32.73341 | -117.19915 | 20 ft | 2 kts | 116° |